createdAt,value
2023-04-09T00:02:36.019Z,102496.28
2023-04-09T00:07:37.773Z,102498.91
2023-04-09T00:12:39.448Z,102492.03
2023-04-09T00:17:41.323Z,102496.50
2023-04-09T00:22:43.229Z,102489.22
2023-04-09T00:27:44.878Z,102500.41
2023-04-09T00:32:46.726Z,102493.72
2023-04-09T00:37:48.534Z,102492.31
2023-04-09T00:42:51.761Z,102486.63
2023-04-09T00:47:53.690Z,102486.63
2023-04-09T00:52:56.455Z,102484.31
2023-04-09T00:57:58.388Z,102484.13
2023-04-09T01:03:01.108Z,102482.19
2023-04-09T01:08:17.956Z,102486.38
2023-04-09T01:13:31.697Z,102479.97
2023-04-09T01:18:50.868Z,102472.53
2023-04-09T01:24:19.280Z,102471.13
2023-04-09T01:29:24.045Z,102474.06
2023-04-09T01:34:27.475Z,102474.19
2023-04-09T01:39:30.054Z,102477.34
2023-04-09T01:44:32.754Z,102469.25
2023-04-09T01:49:36.276Z,102472.59
2023-04-09T01:54:37.960Z,102477.97
2023-04-09T01:59:39.608Z,102472.34
2023-04-09T02:04:46.577Z,102464.81
2023-04-09T02:09:48.882Z,102468.50
2023-04-09T02:14:52.402Z,102468.31
2023-04-09T02:19:54.068Z,102461.91
2023-04-09T02:24:55.956Z,102466.69
2023-04-09T02:29:57.629Z,102470.22
2023-04-09T02:34:59.345Z,102448.78
2023-04-09T02:40:01.044Z,102440.81
2023-04-09T02:45:02.670Z,102443.69
2023-04-09T02:50:06.756Z,102439.06
2023-04-09T02:55:10.298Z,102433.13
2023-04-09T03:00:12.809Z,102423.84
2023-04-09T03:05:14.713Z,102422.19
2023-04-09T03:10:16.375Z,102428.91
2023-04-09T03:15:18.322Z,102424.88
2023-04-09T03:20:20.137Z,102420.56
2023-04-09T03:25:21.968Z,102418.22
2023-04-09T03:30:27.485Z,102412.59
2023-04-09T03:35:30.676Z,102409.31
2023-04-09T03:40:36.505Z,102407.72
2023-04-09T03:45:38.303Z,102402.44
2023-04-09T03:50:53.780Z,102397.22
2023-04-09T03:56:04.120Z,102400.44
2023-04-09T04:01:06.984Z,102393.41
2023-04-09T04:06:16.559Z,102412.97
2023-04-09T04:11:26.644Z,102407.72
2023-04-09T04:16:30.326Z,102406.75
2023-04-09T04:21:32.391Z,102411.03
2023-04-09T04:26:36.824Z,102411.00
2023-04-09T04:31:38.682Z,102402.28
2023-04-09T04:36:40.440Z,102413.47
2023-04-09T04:41:42.989Z,102414.13
2023-04-09T04:46:49.762Z,102417.31
2023-04-09T04:51:51.481Z,102405.50
2023-04-09T04:56:53.613Z,102399.59
2023-04-09T05:02:11.836Z,102401.75
2023-04-09T05:07:24.404Z,102410.19
2023-04-09T05:12:32.016Z,102417.78
2023-04-09T05:17:34.493Z,102417.38
2023-04-09T05:22:36.451Z,102417.13
2023-04-09T05:27:39.182Z,102427.50
2023-04-09T05:32:41.516Z,102424.88
2023-04-09T05:37:43.556Z,102420.75
2023-04-09T05:42:46.668Z,102423.31
2023-04-09T05:47:56.765Z,102417.41
2023-04-09T05:52:58.645Z,102418.28
2023-04-09T05:58:07.497Z,102428.41
2023-04-09T06:03:09.789Z,102432.22
2023-04-09T06:08:12.170Z,102438.53
2023-04-09T06:13:14.015Z,102433.63
2023-04-09T06:18:16.536Z,102427.84
2023-04-09T06:23:18.428Z,102431.88
2023-04-09T06:28:20.369Z,102432.19
2023-04-09T06:33:22.438Z,102438.13
2023-04-09T06:38:24.232Z,102443.63
2023-04-09T06:43:26.097Z,102443.47
2023-04-09T06:48:28.324Z,102439.47
2023-04-09T06:53:29.975Z,102449.63
2023-04-09T06:58:31.666Z,102441.00
2023-04-09T07:03:33.560Z,102440.34
2023-04-09T07:08:35.441Z,102443.22
2023-04-09T07:13:37.316Z,102432.91
2023-04-09T07:18:40.299Z,102442.00
2023-04-09T07:23:42.556Z,102441.75
2023-04-09T07:28:44.329Z,102438.56
2023-04-09T07:33:46.214Z,102444.50
2023-04-09T07:38:50.465Z,102434.50
2023-04-09T07:43:52.277Z,102432.22
2023-04-09T07:48:54.491Z,102433.25
2023-04-09T07:53:56.424Z,102433.97
2023-04-09T07:58:58.417Z,102438.03
2023-04-09T08:04:00.657Z,102436.97
2023-04-09T08:09:03.284Z,102450.97
2023-04-09T08:14:06.324Z,102438.75
2023-04-09T08:19:09.480Z,102433.63
2023-04-09T08:24:12.055Z,102439.19
2023-04-09T08:29:15.527Z,102439.78
2023-04-09T08:34:21.039Z,102442.53
2023-04-09T08:39:22.781Z,102442.97
2023-04-09T08:44:27.889Z,102445.22
2023-04-09T08:49:29.745Z,102443.16
2023-04-09T08:54:32.281Z,102450.91
2023-04-09T08:59:38.000Z,102436.38
2023-04-09T09:04:50.911Z,102436.38
2023-04-09T09:09:53.568Z,102433.81
2023-04-09T09:14:55.405Z,102434.03
2023-04-09T09:19:57.757Z,102437.38
2023-04-09T09:24:59.510Z,102438.94
2023-04-09T09:30:01.543Z,102446.69
2023-04-09T09:35:08.469Z,102441.19
2023-04-09T09:40:10.795Z,102439.72
2023-04-09T09:45:19.606Z,102439.53
2023-04-09T09:50:28.546Z,102435.16
2023-04-09T09:55:43.462Z,102430.16
2023-04-09T10:00:47.272Z,102419.50
2023-04-09T10:05:50.040Z,102414.00
2023-04-09T10:10:52.806Z,102407.94
2023-04-09T10:16:56.962Z,102393.47
2023-04-09T10:22:05.805Z,102390.38
2023-04-09T10:27:14.280Z,102391.84
2023-04-09T10:32:26.589Z,102386.75
2023-04-09T10:37:28.871Z,102381.47
2023-04-09T10:42:35.431Z,102379.72
2023-04-09T10:47:39.653Z,102377.72
2023-04-09T10:52:42.398Z,102367.19
2023-04-09T10:57:44.210Z,102369.06
2023-04-09T11:03:06.654Z,102366.31
2023-04-09T11:08:10.707Z,102354.00
2023-04-09T11:13:13.956Z,102348.34
2023-04-09T11:18:20.883Z,102342.13
2023-04-09T11:23:23.776Z,102339.19
2023-04-09T11:28:26.438Z,102327.88
2023-04-09T11:33:34.649Z,102322.88
2023-04-09T11:38:37.210Z,102319.66
2023-04-09T11:43:38.940Z,102307.81
2023-04-09T11:48:40.699Z,102315.59
2023-04-09T11:53:42.327Z,102313.50
2023-04-09T11:58:48.267Z,102308.59
2023-04-09T12:03:56.373Z,102312.91
2023-04-09T12:08:59.410Z,102306.97
2023-04-09T12:14:05.340Z,102308.97
2023-04-09T12:19:08.714Z,102321.09
2023-04-09T12:24:10.456Z,102304.72
2023-04-09T12:29:14.036Z,102306.41
2023-04-09T12:34:16.395Z,102314.38
2023-04-09T12:39:18.252Z,102310.91
2023-04-09T12:44:20.013Z,102301.53
2023-04-09T12:49:21.692Z,102296.28
2023-04-09T12:54:23.455Z,102301.91
2023-04-09T12:59:25.263Z,102298.78
2023-04-09T13:04:27.059Z,102294.75
2023-04-09T13:09:28.815Z,102293.34
2023-04-09T13:14:30.797Z,102287.88
2023-04-09T13:19:32.728Z,102282.50
2023-04-09T13:24:38.244Z,102273.28
2023-04-09T13:29:40.101Z,102267.81
2023-04-09T13:34:41.762Z,102259.78
2023-04-09T13:39:44.870Z,102254.09
2023-04-09T13:44:46.799Z,102254.00
2023-04-09T13:49:48.555Z,102254.41
2023-04-09T13:54:50.326Z,102240.81
2023-04-09T13:59:51.994Z,102241.34
2023-04-09T14:04:53.743Z,102254.34
2023-04-09T14:09:55.440Z,102240.28
2023-04-09T14:14:57.175Z,102229.91
2023-04-09T14:19:59.163Z,102221.44
2023-04-09T14:25:00.781Z,102194.25
2023-04-09T14:30:03.594Z,102180.50
2023-04-09T14:35:06.364Z,102181.44
2023-04-09T14:40:08.737Z,102175.44
2023-04-09T14:45:11.067Z,102165.09
2023-04-09T14:50:12.979Z,102159.25
2023-04-09T14:55:15.643Z,102162.53
2023-04-09T15:00:17.328Z,102157.84
2023-04-09T15:05:19.215Z,102152.84
2023-04-09T15:10:21.005Z,102153.56
2023-04-09T15:15:22.890Z,102146.63
2023-04-09T15:20:24.622Z,102151.47
2023-04-09T15:25:26.255Z,102143.19
2023-04-09T15:30:27.929Z,102135.56
2023-04-09T15:35:29.711Z,102124.00
2023-04-09T15:40:32.000Z,102126.44
2023-04-09T15:45:33.737Z,102130.72
2023-04-09T15:50:35.617Z,102113.06
2023-04-09T15:55:37.340Z,102115.66
2023-04-09T16:00:39.004Z,102113.94
2023-04-09T16:05:40.695Z,102112.38
2023-04-09T16:10:42.393Z,102105.47
2023-04-09T16:15:45.423Z,102101.66
2023-04-09T16:20:47.304Z,102095.41
2023-04-09T16:25:49.498Z,102100.63
2023-04-09T16:30:51.138Z,102093.00
2023-04-09T16:35:52.859Z,102097.00
2023-04-09T16:40:54.972Z,102085.91
2023-04-09T16:45:57.151Z,102090.94
2023-04-09T16:50:58.892Z,102097.34
2023-04-09T16:56:00.760Z,102085.06
2023-04-09T17:01:02.436Z,102095.28
2023-04-09T17:06:04.930Z,102080.56
2023-04-09T17:11:06.946Z,102074.31
2023-04-09T17:16:09.372Z,102076.56
2023-04-09T17:21:12.410Z,102079.84
2023-04-09T17:26:16.866Z,102079.16
2023-04-09T17:31:19.213Z,102077.44
2023-04-09T17:36:21.350Z,102072.75
2023-04-09T17:41:24.066Z,102072.59
2023-04-09T17:46:25.855Z,102070.69
2023-04-09T17:51:27.758Z,102083.28
2023-04-09T17:56:29.374Z,102072.41
2023-04-09T18:01:31.053Z,102080.34
2023-04-09T18:06:32.924Z,102078.59
2023-04-09T18:11:34.644Z,102075.50
2023-04-09T18:16:40.138Z,102070.13
2023-04-09T18:21:42.046Z,102065.97
2023-04-09T18:26:44.012Z,102070.97
2023-04-09T18:31:45.778Z,102076.13
2023-04-09T18:36:48.700Z,102073.53
2023-04-09T18:41:50.675Z,102079.03
2023-04-09T18:46:52.604Z,102085.25
2023-04-09T18:51:54.785Z,102075.19
2023-04-09T18:56:57.593Z,102080.72
2023-04-09T19:01:59.589Z,102082.41
2023-04-09T19:07:01.773Z,102083.97
2023-04-09T19:12:03.768Z,102087.84
2023-04-09T19:17:05.677Z,102087.84
2023-04-09T19:22:07.517Z,102078.66
2023-04-09T19:27:10.069Z,102073.59
2023-04-09T19:32:13.365Z,102070.81
2023-04-09T19:37:16.486Z,102072.16
2023-04-09T19:42:18.227Z,102061.81
2023-04-09T19:47:19.975Z,102066.25
2023-04-09T19:52:21.787Z,102075.28
2023-04-09T19:57:23.530Z,102067.66
2023-04-09T20:02:25.642Z,102060.38
2023-04-09T20:07:27.352Z,102044.28
2023-04-09T20:12:29.694Z,102051.16
2023-04-09T20:17:32.040Z,102055.06
2023-04-09T20:22:34.083Z,102047.72
2023-04-09T20:27:35.687Z,102048.84
2023-04-09T20:32:41.213Z,102043.97
2023-04-09T20:37:51.801Z,102058.78
2023-04-09T20:42:53.560Z,102049.38
2023-04-09T20:47:56.235Z,102050.56
2023-04-09T20:53:01.159Z,102051.59
2023-04-09T20:58:04.265Z,102039.47
2023-04-09T21:03:06.052Z,102034.75
2023-04-09T21:08:08.271Z,102026.97
2023-04-09T21:13:09.885Z,102031.00
2023-04-09T21:18:11.591Z,102037.78
2023-04-09T21:23:13.674Z,102034.16
2023-04-09T21:28:15.582Z,102037.88
2023-04-09T21:33:17.204Z,102026.63
2023-04-09T21:38:19.255Z,102030.94
2023-04-09T21:43:20.923Z,102020.00
2023-04-09T21:48:23.085Z,102022.19
2023-04-09T21:53:24.852Z,102020.25
2023-04-09T21:58:26.562Z,102014.41
2023-04-09T22:03:28.694Z,102025.38
2023-04-09T22:08:30.504Z,102012.00
2023-04-09T22:13:32.125Z,102012.28
2023-04-09T22:18:37.099Z,102001.94
2023-04-09T22:23:38.709Z,101995.44
2023-04-09T22:28:40.348Z,101993.13
2023-04-09T22:33:42.032Z,101994.00
2023-04-09T22:38:43.697Z,101995.56
2023-04-09T22:43:45.694Z,101981.00
2023-04-09T22:48:47.553Z,101979.97
2023-04-09T22:53:49.145Z,101978.81
2023-04-09T22:58:51.035Z,101974.25
2023-04-09T23:03:52.928Z,101971.97
2023-04-09T23:08:54.853Z,101961.44
2023-04-09T23:13:56.727Z,101967.00
2023-04-09T23:18:58.364Z,101964.63
2023-04-09T23:24:00.038Z,101953.16
2023-04-09T23:29:01.807Z,101942.13
2023-04-09T23:34:03.460Z,101938.41
2023-04-09T23:39:05.461Z,101939.38
2023-04-09T23:44:07.049Z,101940.03
2023-04-09T23:49:08.649Z,101926.69
2023-04-09T23:54:10.630Z,101928.59
2023-04-09T23:59:12.418Z,101915.44
